Key West, FL

3:07 AM EDT on August 30, 2015 (GMT -0400)
Key West International | | Change Station
CLOSE
Current Station
Airport
Location: Key West,
Elevation: 0 ft
Nearby Weather Stations

Elev 0 ft 24.56 °N, 81.75 °W | Updated 14 minutes ago

Clear
Clear
81 °F
Feels Like 88 °F
N
9
Wind Variable Wind from ENE

Today
High -- | Low -- °F
--% Chance of Precip.
Yesterday
High -- | Low -- °F
Precip. -- in
7:07 AM 7:47 PM
Full, 100% visible
Pressure 29.86 in
Visibility 10.0 miles
Clouds Clear
Heat Index 88 °F
Dew Point 77 °F
Humidity 88%
Rainfall 0.00 in
Snow Depth Not available.
UV 0 out of 12
Pollen 5.40 out of 12
Air Quality Not available.
Flu Activity Not available.
METAR KEYW 300653Z AUTO 06008KT 10SM CLR 27/25 A2986 RMK AO2 SLP112 T02720250
Pressure 29.86 in
Visibility 10.0 miles
Clouds Clear
Heat Index 88 °F
Dew Point 77 °F
Humidity 88%
Rainfall 0.00 in
Snow Depth Not available.
UV 0 out of 12
Pollen 5.40 out of 12
Air Quality Not available.
Flu Activity Not available.
METAR KEYW 300653Z AUTO 06008KT 10SM CLR 27/25 A2986 RMK AO2 SLP112 T02720250
Nowcast | as of 2:28 am EDT on August 30, 2015

Through 330 am...a cluster of strong showers and thunderstorms will move northwestward at 25 mph...over the Upper Keys...and surrounding nearshore waters. This activity will produce wind gusts near 40 mph...blinding downpours...and frequent cloud to surface lightning strikes. Elsewhere...scattered showers and thunderstorms will be found over the outer Florida Straits adjacent to the middle and Upper Keys.

×

10-Day Weather Forecast

×

Almanac

Astronomy

Aug. 30, 2015 Rise Set
Actual Time
Civil Twilight
Nautical Twilight
Astronomical Twilight
Moon
Length of Visible Light
Length of Day
Tomorrow will be .
, % of the Moon is Illuminated

Today's Extremes

State Highs State Lows

Community

WunderPhotos

Upload Photos

1,850,904 photos uploaded!

WunderBlogs® & News

Nearby

Air Quality

  Air Quality AQ Index Pollutant
Not available.

Snow Depth

Station Depth Elevation

Earthquake Activity

City Distance Mag. Time & Date
Minimum magnitude displayed is 2.5.

Coastal Water Temperatures

Place Temperature

Stations

Nearby Weather Stations

Station Location Temp. Windchill Dew Point Humidity Wind Precip. Elev Updated Type